Time;durP1;ratioP1;P1;durP2;ratioP2;P2;SDS_P1;SDS_P2;PMS_P1;PMS_P2;Temp;Humidity;BMP_temperature;BMP_pressure;BME280_temperature;BME280_humidity;BME280_pressure;Samples;Min_cycle;Max_cycle;Signal;HPM_P1;HPM_P2
2023/08/08 00:02:10;;;;;;;6.93;2.77;;;;;;;10.29;100.00;100440.78;7384338;19;20403;-50
2023/08/08 00:04:40;;;;;;;9.70;3.20;;;;;;;10.24;100.00;100417.41;7392804;19;20515;-45
2023/08/08 00:07:10;;;;;;;9.27;2.87;;;;;;;10.26;100.00;100427.78;7388954;19;20416;-46
2023/08/08 00:09:40;;;;;;;10.07;3.67;;;;;;;10.20;100.00;100409.50;7392405;19;20456;-49
2023/08/08 00:12:10;;;;;;;7.10;3.13;;;;;;;10.21;100.00;100401.78;7391100;19;20495;-48
2023/08/08 00:14:42;;;;;;;17.47;3.57;;;;;;;10.19;100.00;100397.41;7372046;19;20896;-47
2023/08/08 00:17:11;;;;;;;7.40;2.90;;;;;;;10.18;100.00;100383.66;7369372;19;20486;-49
2023/08/08 00:19:41;;;;;;;8.63;2.50;;;;;;;10.16;100.00;100387.00;7392498;19;20403;-44
2023/08/08 00:22:11;;;;;;;10.23;3.00;;;;;;;10.20;100.00;100383.72;7375645;19;20503;-49
2023/08/08 00:24:40;;;;;;;7.40;3.17;;;;;;;10.21;100.00;100375.16;7393254;19;20446;-48
2023/08/08 00:27:10;;;;;;;9.03;2.60;;;;;;;10.19;100.00;100376.78;7385941;19;20423;-45
2023/08/08 00:29:42;;;;;;;6.73;3.13;;;;;;;10.21;100.00;100354.53;7395528;19;20503;-49
2023/08/08 00:32:12;;;;;;;8.70;2.60;;;;;;;10.22;100.00;100356.28;7368785;19;20408;-46
2023/08/08 00:34:42;;;;;;;9.30;2.60;;;;;;;10.21;100.00;100346.78;7391344;19;20443;-48
2023/08/08 00:37:11;;;;;;;6.37;2.10;;;;;;;10.22;100.00;100356.28;7369890;19;20395;-48
2023/08/08 00:39:45;;;;;;;10.30;2.80;;;;;;;10.29;100.00;100358.25;7393580;19;20479;-46
2023/08/08 00:42:15;;;;;;;27.00;10.47;;;;;;;10.28;100.00;100361.66;7368157;19;21243;-49
2023/08/08 00:44:47;;;;;;;22.13;8.77;;;;;;;10.27;100.00;100375.38;7391249;19;20823;-50
2023/08/08 00:47:17;;;;;;;35.60;13.30;;;;;;;10.29;100.00;100384.03;7368239;19;20416;-48
2023/08/08 00:49:48;;;;;;;7.37;2.40;;;;;;;10.29;100.00;100388.34;7392437;19;20415;-47
2023/08/08 00:52:18;;;;;;;10.37;4.20;;;;;;;10.29;100.00;100414.97;7368330;19;20403;-49
2023/08/08 00:54:47;;;;;;;9.13;4.50;;;;;;;10.31;100.00;100408.16;7391907;19;20815;-48
2023/08/08 00:57:18;;;;;;;12.70;3.67;;;;;;;10.32;100.00;100435.75;7368602;19;20408;-51
2023/08/08 00:59:50;;;;;;;11.87;4.00;;;;;;;10.34;100.00;100428.94;7392004;19;20399;-47
2023/08/08 01:02:20;;;;;;;7.43;2.73;;;;;;;10.33;100.00;100434.03;7368089;19;20952;-49
2023/08/08 01:04:49;;;;;;;7.40;3.30;;;;;;;10.35;100.00;100425.53;7390568;19;20466;-50
2023/08/08 01:07:23;;;;;;;4.97;2.80;;;;;;;10.34;100.00;100420.31;7365664;19;20429;-50
2023/08/08 01:09:57;;;;;;;9.67;3.20;;;;;;;10.39;100.00;100416.19;7391617;19;20403;-49
2023/08/08 01:12:28;;;;;;;9.83;3.70;;;;;;;10.41;100.00;100414.53;7367974;19;20415;-48
2023/08/08 01:15:00;;;;;;;6.67;3.10;;;;;;;10.44;100.00;100418.97;7390442;19;20431;-45
2023/08/08 01:17:30;;;;;;;8.30;2.83;;;;;;;10.43;100.00;100438.75;7368081;19;20396;-46
2023/08/08 01:19:59;;;;;;;16.50;6.00;;;;;;;10.43;100.00;100435.28;7393364;19;20436;-46
2023/08/08 01:22:32;;;;;;;19.70;8.23;;;;;;;10.44;100.00;100424.13;7367086;19;20507;-47
2023/08/08 01:25:06;;;;;;;6.53;2.87;;;;;;;10.35;100.00;100435.84;7391414;19;20519;-46
2023/08/08 01:27:35;;;;;;;4.23;2.00;;;;;;;10.31;100.00;100440.84;7369157;19;21018;-44
2023/08/08 01:30:06;;;;;;;11.63;4.13;;;;;;;10.29;100.00;100445.94;7391969;19;20768;-46
2023/08/08 01:32:36;;;;;;;9.53;3.53;;;;;;;10.28;100.00;100444.16;7367743;19;21013;-45
2023/08/08 01:35:07;;;;;;;6.30;2.27;;;;;;;10.29;100.00;100440.78;7391054;19;20471;-46
2023/08/08 01:37:40;;;;;;;8.00;2.47;;;;;;;10.29;100.00;100451.09;7367073;19;20395;-48
2023/08/08 01:40:15;;;;;;;6.37;3.60;;;;;;;10.32;100.00;100433.16;7389005;19;20810;-44
2023/08/08 01:42:46;;;;;;;8.27;2.87;;;;;;;10.30;100.00;100429.63;7367325;19;20404;-45
2023/08/08 01:45:16;;;;;;;4.97;2.50;;;;;;;10.31;100.00;100407.31;7389910;19;20450;-46
2023/08/08 01:47:46;;;;;;;14.00;4.37;;;;;;;10.34;100.00;100403.16;7366689;19;20452;-49
2023/08/08 01:50:15;;;;;;;3.70;2.17;;;;;;;10.33;100.00;100392.75;7390386;19;20499;-45
2023/08/08 01:52:45;;;;;;;5.57;2.47;;;;;;;10.32;100.00;100389.31;7367387;19;20395;-45
2023/08/08 01:55:17;;;;;;;6.10;2.67;;;;;;;10.34;100.00;100387.66;7389499;19;20522;-46
2023/08/08 01:57:47;;;;;;;7.07;3.20;;;;;;;10.33;100.00;100374.72;7366032;19;20498;-45
2023/08/08 02:00:17;;;;;;;11.13;2.73;;;;;;;10.34;100.00;100361.88;7389340;19;20419;-47
2023/08/08 02:02:47;;;;;;;7.93;3.00;;;;;;;10.33;100.00;100362.72;7366247;19;20416;-45
2023/08/08 02:05:17;;;;;;;4.93;2.70;;;;;;;10.32;100.00;100352.34;7389497;19;20486;-43
2023/08/08 02:07:46;;;;;;;9.60;3.23;;;;;;;10.36;100.00;100277.72;7367617;19;20409;-44
2023/08/08 02:10:18;;;;;;;8.20;3.13;;;;;;;10.39;100.00;100241.72;7389637;19;20412;-44
2023/08/08 02:12:48;;;;;;;6.93;2.70;;;;;;;10.44;100.00;100218.69;7366702;19;20392;-44
2023/08/08 02:15:18;;;;;;;10.47;2.73;;;;;;;10.42;100.00;100209.13;7388944;19;20450;-44
2023/08/08 02:17:48;;;;;;;14.40;3.10;;;;;;;10.43;100.00;100191.16;7366189;19;20419;-47
2023/08/08 02:20:17;;;;;;;9.00;2.90;;;;;;;10.40;100.00;100196.16;7388898;19;20408;-43
2023/08/08 02:22:47;;;;;;;5.40;2.53;;;;;;;10.35;100.00;100183.13;7367399;19;20818;-46
2023/08/08 02:25:19;;;;;;;14.40;3.30;;;;;;;10.33;100.00;100164.16;7389191;19;20458;-44
2023/08/08 02:27:49;;;;;;;12.10;2.23;;;;;;;10.29;100.00;100169.16;7365773;19;20808;-45
2023/08/08 02:30:19;;;;;;;11.80;3.00;;;;;;;10.28;100.00;100160.53;7394113;19;20486;-47
2023/08/08 02:32:48;;;;;;;6.90;2.43;;;;;;;10.21;100.00;100161.16;7374360;19;20398;-44
2023/08/08 02:35:18;;;;;;;7.77;2.77;;;;;;;10.21;100.00;100158.59;7394774;19;20911;-47
2023/08/08 02:37:48;;;;;;;6.60;2.30;;;;;;;10.19;100.00;100155.94;7373544;19;20401;-44
2023/08/08 02:40:23;;;;;;;3.60;1.90;;;;;;;10.19;100.00;100155.94;7395849;19;20419;-47
2023/08/08 02:42:53;;;;;;;6.10;2.20;;;;;;;10.26;100.00;100151.88;7373965;19;20945;-46
2023/08/08 02:45:22;;;;;;;4.30;2.40;;;;;;;10.20;100.00;100147.38;7394458;19;20982;-44
2023/08/08 02:47:52;;;;;;;7.40;3.23;;;;;;;10.23;100.00;100131.16;7374443;19;20420;-44
2023/08/08 02:50:21;;;;;;;15.23;2.77;;;;;;;10.24;100.00;100138.94;7394132;19;20411;-45
2023/08/08 02:52:52;;;;;;;5.87;1.90;;;;;;;10.26;100.00;100128.69;7373818;19;20994;-43
2023/08/08 02:55:24;;;;;;;6.50;2.60;;;;;;;10.23;100.00;100131.16;7393854;19;20447;-47
2023/08/08 02:57:54;;;;;;;9.40;2.30;;;;;;;10.23;100.00;100120.84;7374751;19;20473;-46
2023/08/08 03:00:23;;;;;;;6.43;1.83;;;;;;;10.24;100.00;100108.00;7397839;19;20400;-47
2023/08/08 03:02:53;;;;;;;3.33;2.13;;;;;;;10.28;100.00;100108.97;7370918;19;20478;-46
2023/08/08 03:05:23;;;;;;;6.07;1.93;;;;;;;10.27;100.00;100108.09;7394332;19;20454;-45
2023/08/08 03:07:52;;;;;;;5.93;2.27;;;;;;;10.28;100.00;100103.81;7372873;19;20395;-45
2023/08/08 03:10:25;;;;;;;5.80;2.27;;;;;;;10.31;100.00;100103.03;7394681;19;20415;-44
2023/08/08 03:12:54;;;;;;;9.40;2.30;;;;;;;10.26;100.00;100097.75;7371446;19;20399;-47
2023/08/08 03:15:24;;;;;;;4.00;1.50;;;;;;;10.23;100.00;100095.94;7393459;19;20446;-42
2023/08/08 03:17:53;;;;;;;7.63;2.17;;;;;;;10.27;100.00;100092.63;7373446;19;20397;-47
2023/08/08 03:20:23;;;;;;;3.90;1.40;;;;;;;10.26;100.00;100095.16;7394270;19;20407;-44
2023/08/08 03:22:53;;;;;;;9.27;2.13;;;;;;;10.26;100.00;100084.84;7370908;19;20402;-48
2023/08/08 03:25:25;;;;;;;6.00;1.77;;;;;;;10.29;100.00;100086.66;7393932;19;21039;-49
2023/08/08 03:27:55;;;;;;;14.23;5.57;;;;;;;10.27;100.00;100076.28;7371098;19;20399;-51
2023/08/08 03:30:24;;;;;;;30.37;9.93;;;;;;;10.26;100.00;100075.41;7393328;19;20942;-46
2023/08/08 03:32:54;;;;;;;5.70;1.93;;;;;;;10.26;100.00;100077.97;7372749;19;20430;-46
2023/08/08 03:35:24;;;;;;;6.20;2.20;;;;;;;10.30;100.00;100057.47;7393425;19;20443;-45
2023/08/08 03:37:54;;;;;;;5.50;2.27;;;;;;;10.30;100.00;100071.22;7370911;19;20496;-44
2023/08/08 03:40:23;;;;;;;4.97;1.93;;;;;;;10.29;100.00;100066.88;7392404;19;20404;-43
2023/08/08 03:42:53;;;;;;;9.07;3.23;;;;;;;10.31;100.00;100062.66;7369545;19;20403;-48
2023/08/08 03:45:23;;;;;;;7.47;1.83;;;;;;;10.29;100.00;100051.41;7394254;19;20462;-44
2023/08/08 03:47:52;;;;;;;5.40;2.07;;;;;;;10.32;100.00;100060.97;7370137;19;20432;-51
2023/08/08 03:50:22;;;;;;;6.33;2.77;;;;;;;10.36;100.00;100058.50;7393671;19;20439;-43
2023/08/08 03:52:52;;;;;;;4.83;2.83;;;;;;;10.40;100.00;100057.78;7370650;19;20399;-44
2023/08/08 03:55:22;;;;;;;7.10;2.50;;;;;;;10.42;100.00;100050.13;7393144;19;20448;-45
2023/08/08 03:57:54;;;;;;;6.87;2.30;;;;;;;10.45;100.00;100078.59;7370524;19;20486;-44
2023/08/08 04:00:24;;;;;;;3.80;2.13;;;;;;;10.46;100.00;100049.41;7392928;19;20503;-42
2023/08/08 04:02:54;;;;;;;6.13;2.07;;;;;;;10.47;100.00;100043.41;7370114;19;20816;-45
2023/08/08 04:05:23;;;;;;;9.03;2.00;;;;;;;10.51;100.00;100047.84;7392649;19;20467;-43
2023/08/08 04:07:53;;;;;;;5.50;2.63;;;;;;;10.52;100.00;100043.56;7369943;19;20522;-47
2023/08/08 04:10:23;;;;;;;7.77;2.40;;;;;;;10.51;100.00;100053.00;7392468;19;20467;-47
2023/08/08 04:12:55;;;;;;;6.50;1.63;;;;;;;10.51;100.00;100046.97;7370103;19;20403;-49
2023/08/08 04:15:24;;;;;;;5.37;2.00;;;;;;;10.53;100.00;100053.91;7392873;19;20454;-47
2023/08/08 04:17:54;;;;;;;8.20;2.27;;;;;;;10.56;100.00;100060.00;7369694;19;20391;-43
2023/08/08 04:20:25;;;;;;;10.47;1.90;;;;;;;10.56;100.00;100063.44;7392260;19;20432;-45
2023/08/08 04:22:54;;;;;;;4.40;1.70;;;;;;;10.59;100.00;100055.81;7369717;19;20399;-46
2023/08/08 04:25:24;;;;;;;5.53;1.80;;;;;;;10.62;100.00;100053.31;7391789;19;20456;-47
2023/08/08 04:27:56;;;;;;;7.90;1.70;;;;;;;10.60;100.00;100049.81;7370153;19;20403;-45
2023/08/08 04:30:26;;;;;;;4.37;1.80;;;;;;;10.62;100.00;100045.59;7392177;19;20411;-43
2023/08/08 04:32:55;;;;;;;4.83;1.90;;;;;;;10.62;100.00;100055.91;7369250;19;20409;-45
2023/08/08 04:35:25;;;;;;;11.13;2.20;;;;;;;10.61;100.00;100059.31;7392258;19;20447;-51
2023/08/08 04:37:55;;;;;;;4.27;1.53;;;;;;;10.58;100.00;100058.34;7368535;19;20400;-49
2023/08/08 04:40:24;;;;;;;5.90;1.80;;;;;;;10.55;100.00;100064.28;7392039;19;20939;-44
2023/08/08 04:42:56;;;;;;;6.27;1.70;;;;;;;10.54;100.00;100057.38;7368463;19;20416;-45
2023/08/08 04:45:27;;;;;;;5.67;1.83;;;;;;;10.52;100.00;100072.78;7392861;19;20526;-45
2023/08/08 04:47:57;;;;;;;6.73;1.50;;;;;;;10.52;100.00;100096.00;7370538;19;20742;-48
2023/08/08 04:50:28;;;;;;;4.20;1.90;;;;;;;10.49;100.00;100097.63;7394059;19;20411;-50
2023/08/08 04:52:57;;;;;;;4.70;1.50;;;;;;;10.47;100.00;100133.66;7368649;19;20395;-44
2023/08/08 04:55:27;;;;;;;3.70;1.27;;;;;;;10.51;100.00;100157.88;7390169;19;20443;-47
2023/08/08 04:58:00;;;;;;;2.50;1.07;;;;;;;10.50;100.00;100233.50;7370259;19;20819;-46
2023/08/08 05:00:30;;;;;;;3.40;1.20;;;;;;;10.52;100.00;100294.63;7391731;19;20475;-45
2023/08/08 05:02:59;;;;;;;3.50;1.60;;;;;;;10.53;100.00;100303.25;7367624;19;20410;-46
2023/08/08 05:05:29;;;;;;;4.63;1.30;;;;;;;10.58;100.00;100319.78;7390786;19;20983;-43
2023/08/08 05:07:59;;;;;;;6.93;1.40;;;;;;;10.62;100.00;100329.34;7367881;19;20440;-47
2023/08/08 05:10:28;;;;;;;3.30;1.07;;;;;;;10.64;100.00;100332.88;7391812;19;20419;-44
2023/08/08 05:13:00;;;;;;;8.10;1.60;;;;;;;10.71;100.00;100330.53;7367803;19;20427;-44
2023/08/08 05:15:30;;;;;;;4.20;1.33;;;;;;;10.72;100.00;100345.16;7391578;19;20469;-48
2023/08/08 05:18:00;;;;;;;5.10;0.93;;;;;;;10.77;100.00;100347.06;7369362;19;20860;-47
2023/08/08 05:20:29;;;;;;;2.80;1.20;;;;;;;10.80;100.00;100361.78;7391562;19;20414;-48
2023/08/08 05:22:59;;;;;;;3.37;1.33;;;;;;;10.81;100.00;100368.69;7367739;19;20435;-48
2023/08/08 05:25:29;;;;;;;3.77;1.13;;;;;;;10.84;100.00;100365.34;7390679;19;20447;-48
2023/08/08 05:28:01;;;;;;;2.80;1.10;;;;;;;10.87;100.00;100353.41;7367835;19;20403;-48
2023/08/08 05:30:30;;;;;;;2.47;1.40;;;;;;;10.96;100.00;100358.03;7391762;19;20420;-45
2023/08/08 05:33:00;;;;;;;3.13;1.00;;;;;;;11.04;100.00;100359.16;7367782;19;20434;-43
2023/08/08 05:35:30;;;;;;;4.23;1.47;;;;;;;11.12;100.00;100356.81;7390558;19;20456;-44
2023/08/08 05:37:59;;;;;;;3.97;1.43;;;;;;;11.20;100.00;100350.22;7367968;19;20745;-46
2023/08/08 05:40:29;;;;;;;6.97;1.53;;;;;;;11.29;100.00;100361.69;7392238;19;20418;-47
2023/08/08 05:43:01;;;;;;;5.30;1.03;;;;;;;11.34;100.00;100365.28;7366454;19;20440;-47
2023/08/08 05:45:31;;;;;;;8.83;1.73;;;;;;;11.42;100.00;100356.06;7390071;19;20480;-44
2023/08/08 05:48:01;;;;;;;7.20;1.47;;;;;;;11.34;100.00;100375.63;7367466;19;20430;-45
2023/08/08 05:50:31;;;;;;;8.07;1.70;;;;;;;11.33;100.00;100374.72;7390620;19;20427;-50
2023/08/08 05:53:00;;;;;;;4.00;1.13;;;;;;;11.30;100.00;100384.09;7367466;19;20758;-47
2023/08/08 05:55:30;;;;;;;3.47;1.50;;;;;;;11.39;100.00;100388.69;7389822;19;20446;-48
2023/08/08 05:58:02;;;;;;;3.83;1.33;;;;;;;11.46;100.00;100386.34;7367137;19;20463;-48
2023/08/08 06:00:32;;;;;;;6.03;1.33;;;;;;;11.50;100.00;100376.09;7390386;19;20432;-47
2023/08/08 06:03:02;;;;;;;3.80;1.10;;;;;;;11.51;100.00;100390.78;7364582;19;20419;-45
2023/08/08 06:05:32;;;;;;;4.83;1.20;;;;;;;11.54;100.00;100393.47;7389136;19;20447;-44
2023/08/08 06:08:01;;;;;;;5.43;1.43;;;;;;;11.67;100.00;100400.78;7365998;19;20478;-49
2023/08/08 06:10:31;;;;;;;19.63;1.57;;;;;;;11.74;100.00;100410.47;7385603;19;20403;-49
2023/08/08 06:13:03;;;;;;;41.70;15.97;;;;;;;11.84;100.00;100423.69;7365442;19;20954;-45
2023/08/08 06:15:33;;;;;;;16.00;6.30;;;;;;;11.85;100.00;100420.28;7388853;19;20459;-45
2023/08/08 06:18:03;;;;;;;6.80;2.53;;;;;;;11.90;100.00;100429.06;7366139;19;20760;-46
2023/08/08 06:20:32;;;;;;;7.90;2.70;;;;;;;11.91;100.00;100435.09;7390385;19;20408;-47
2023/08/08 06:23:02;;;;;;;11.30;2.50;;;;;;;11.97;100.00;100445.63;7366634;19;20423;-44
2023/08/08 06:25:32;;;;;;;5.83;2.20;;;;;;;12.04;100.00;100446.75;7388458;19;20454;-46
2023/08/08 06:28:04;;;;;;;7.53;1.80;;;;;;;12.02;100.00;100444.94;7365577;19;20407;-43
2023/08/08 06:30:33;;;;;;;4.70;2.50;;;;;;;12.00;100.00;100449.19;7389680;19;20516;-49
2023/08/08 06:33:03;;;;;;;15.77;6.03;;;;;;;12.03;100.00;100461.31;7366273;19;20869;-43
2023/08/08 06:35:33;;;;;;;10.63;4.33;;;;;;;12.07;100.00;100457.16;7387563;19;20451;-47
2023/08/08 06:38:02;;;;;;;4.60;1.37;;;;;;;12.16;100.00;100447.13;7364687;19;20942;-46
2023/08/08 06:40:32;;;;;;;8.73;2.73;;;;;;;12.21;100.00;100444.66;7388338;19;20403;-44
2023/08/08 06:43:04;;;;;;;8.90;3.20;;;;;;;12.34;100.00;100448.47;7364822;19;20494;-43
2023/08/08 06:45:34;;;;;;;7.13;3.23;;;;;;;12.28;100.00;100451.75;7388495;19;20485;-46
2023/08/08 06:48:04;;;;;;;9.03;3.20;;;;;;;12.25;100.00;100437.03;7366418;19;20410;-50
2023/08/08 06:50:33;;;;;;;9.63;3.27;;;;;;;12.40;100.00;100441.78;7388323;19;21016;-48
2023/08/08 06:53:03;;;;;;;8.90;2.53;;;;;;;12.41;100.00;100433.19;7366009;19;20745;-54
2023/08/08 06:55:33;;;;;;;11.20;3.43;;;;;;;12.43;100.00;100418.56;7387069;19;20446;-50
2023/08/08 06:58:05;;;;;;;7.10;3.10;;;;;;;12.51;100.00;100421.38;7365871;19;20420;-47
2023/08/08 07:00:35;;;;;;;10.03;3.53;;;;;;;12.56;100.00;100440.50;7387406;19;20419;-44
2023/08/08 07:03:05;;;;;;;7.30;1.80;;;;;;;12.63;100.00;100422.56;7363960;19;20978;-45
2023/08/08 07:05:34;;;;;;;2.80;1.60;;;;;;;12.58;100.00;100429.31;7387715;19;20454;-48
2023/08/08 07:08:04;;;;;;;23.37;8.17;;;;;;;12.73;100.00;100424.59;7364910;19;20395;-45
2023/08/08 07:10:35;;;;;;;6.37;2.40;;;;;;;12.86;100.00;100423.19;7387983;19;20411;-50
2023/08/08 07:13:07;;;;;;;10.20;4.07;;;;;;;12.92;100.00;100406.97;7363665;19;20395;-48
2023/08/08 07:15:37;;;;;;;5.10;1.93;;;;;;;13.17;100.00;100410.19;7388207;19;20447;-49
2023/08/08 07:18:07;;;;;;;12.50;4.47;;;;;;;13.12;100.00;100406.63;7370503;19;20399;-46
2023/08/08 07:20:37;;;;;;;12.37;3.03;;;;;;;12.87;100.00;100403.38;7394935;19;20421;-47
2023/08/08 07:23:06;;;;;;;8.87;2.97;;;;;;;12.88;100.00;100408.59;7370963;19;20998;-45
2023/08/08 07:25:37;;;;;;;9.00;3.87;;;;;;;12.89;100.00;100406.88;7393490;19;20451;-46
2023/08/08 07:28:09;;;;;;;14.53;3.30;;;;;;;12.97;100.00;100418.31;7370882;19;20403;-46
2023/08/08 07:30:38;;;;;;;12.13;3.33;;;;;;;13.02;100.00;100423.63;7394590;19;20423;-44
2023/08/08 07:33:08;;;;;;;5.27;1.53;;;;;;;12.98;100.00;100432.13;7370974;19;20423;-45
2023/08/08 07:35:38;;;;;;;7.43;3.23;;;;;;;13.08;100.00;100424.66;7392811;19;20451;-48
2023/08/08 07:38:08;;;;;;;8.77;2.70;;;;;;;13.19;100.00;100434.41;7370555;19;20845;-46
2023/08/08 07:40:40;;;;;;;23.17;7.40;;;;;;;13.27;100.00;100443.25;7394485;19;20400;-47
2023/08/08 07:43:12;;;;;;;18.93;4.47;;;;;;;13.19;100.00;100449.97;7370795;19;20546;-48
2023/08/08 07:45:42;;;;;;;6.57;2.60;;;;;;;13.21;100.00;100454.34;7393927;19;20451;-45
2023/08/08 07:48:12;;;;;;;4.97;2.07;;;;;;;13.42;100.00;100452.25;7370431;19;20420;-48
2023/08/08 07:50:41;;;;;;;5.90;2.53;;;;;;;13.22;100.00;100450.91;7394213;19;20423;-46
2023/08/08 07:53:11;;;;;;;12.83;4.63;;;;;;;13.42;100.00;100462.59;7370147;19;20439;-50
2023/08/08 07:55:40;;;;;;;23.23;9.20;;;;;;;13.45;100.00;100468.78;7392506;19;20802;-46
2023/08/08 07:58:13;;;;;;;18.87;6.87;;;;;;;13.69;100.00;100466.78;7370402;19;21101;-48
2023/08/08 08:00:44;;;;;;;4.87;2.20;;;;;;;14.09;100.00;100459.94;7393773;19;20803;-50
2023/08/08 08:03:14;;;;;;;8.37;2.17;;;;;;;13.90;100.00;100462.09;7370186;19;20970;-47
2023/08/08 08:05:43;;;;;;;5.93;1.60;;;;;;;13.69;100.00;100470.22;7392512;19;20454;-47
2023/08/08 08:08:13;;;;;;;6.67;2.00;;;;;;;13.70;100.00;100471.13;7369803;19;20419;-47
2023/08/08 08:10:43;;;;;;;7.17;2.93;;;;;;;13.69;100.00;100461.59;7393603;19;20491;-47
2023/08/08 08:13:15;;;;;;;10.93;4.23;;;;;;;13.76;100.00;100468.69;7369344;19;20420;-46
2023/08/08 08:15:45;;;;;;;8.30;2.80;;;;;;;13.70;100.00;100453.84;7393194;19;20455;-45
2023/08/08 08:18:16;;;;;;;15.00;4.40;;;;;;;13.40;100.00;100435.78;7367625;19;20858;-47
2023/08/08 08:20:48;;;;;;;13.33;4.53;;;;;;;13.16;100.00;100403.25;7393455;19;20906;-45
2023/08/08 08:23:18;;;;;;;6.47;1.97;;;;;;;13.09;100.00;100382.38;7363955;19;20435;-45
2023/08/08 08:25:48;;;;;;;9.40;2.73;;;;;;;13.05;100.00;100383.16;7391974;19;20468;-47
2023/08/08 08:28:20;;;;;;;5.93;2.50;;;;;;;12.83;100.00;100369.63;7366527;19;20506;-47
2023/08/08 08:30:50;;;;;;;12.10;4.47;;;;;;;12.85;100.00;100366.19;7393008;19;20407;-47
2023/08/08 08:33:20;;;;;;;10.60;2.50;;;;;;;12.93;100.00;100380.25;7367144;19;20431;-47
2023/08/08 08:35:49;;;;;;;4.43;1.93;;;;;;;12.81;100.00;100363.53;7392250;19;20515;-46
2023/08/08 08:38:19;;;;;;;4.50;2.00;;;;;;;12.67;100.00;100383.88;7367342;19;20794;-46
2023/08/08 08:40:49;;;;;;;4.90;2.30;;;;;;;12.27;100.00;100367.25;7394649;19;20425;-44
2023/08/08 08:43:21;;;;;;;3.80;1.77;;;;;;;12.01;100.00;100355.25;7370712;19;20451;-43
2023/08/08 08:45:55;;;;;;;10.07;3.30;;;;;;;11.59;100.00;100363.50;7397033;19;20791;-43
2023/08/08 08:48:24;;;;;;;5.90;2.43;;;;;;;11.52;100.00;100353.78;7374364;19;20970;-42
2023/08/08 08:50:54;;;;;;;3.80;2.00;;;;;;;11.48;100.00;100338.19;7399566;19;20411;-43
2023/08/08 08:53:24;;;;;;;7.40;2.23;;;;;;;11.48;100.00;100316.63;7374066;19;20475;-41
2023/08/08 08:55:54;;;;;;;4.40;2.07;;;;;;;11.54;100.00;100315.97;7394955;19;20451;-43
2023/08/08 08:58:27;;;;;;;7.53;2.60;;;;;;;11.59;100.00;100309.22;7370744;19;20427;-43
2023/08/08 09:00:58;;;;;;;3.57;2.20;;;;;;;11.59;100.00;100298.91;7395874;19;21066;-45
2023/08/08 09:03:28;;;;;;;6.93;2.50;;;;;;;11.52;100.00;100278.84;7370513;19;20442;-42
2023/08/08 09:05:58;;;;;;;4.80;1.80;;;;;;;11.53;100.00;100288.38;7395721;19;20447;-44
2023/08/08 09:08:28;;;;;;;4.30;1.70;;;;;;;11.57;100.00;100288.50;7369079;19;20419;-45
2023/08/08 09:10:58;;;;;;;6.50;1.80;;;;;;;11.60;100.00;100286.00;7387171;19;20446;-44
2023/08/08 09:13:35;;;;;;;12.73;2.13;;;;;;;11.65;100.00;100291.34;7360108;19;20442;-43
2023/08/08 09:16:07;;;;;;;13.37;5.13;;;;;;;11.77;100.00;100277.00;7394178;19;20884;-43
2023/08/08 09:18:38;;;;;;;3.33;1.40;;;;;;;11.77;100.00;100251.16;7367190;19;20431;-42
2023/08/08 09:21:08;;;;;;;9.03;4.33;;;;;;;11.84;100.00;100235.88;7393517;19;20415;-43
2023/08/08 09:23:39;;;;;;;6.47;3.20;;;;;;;11.97;100.00;100234.53;7367645;19;20454;-45
2023/08/08 09:26:09;;;;;;;3.90;1.47;;;;;;;12.04;100.00;100252.81;7389860;19;20528;-44
2023/08/08 09:28:41;;;;;;;5.13;2.00;;;;;;;12.13;100.00;100266.00;7362401;19;20423;-45
2023/08/08 09:31:11;;;;;;;6.10;2.50;;;;;;;12.33;100.00;100258.78;7390576;19;20411;-48
2023/08/08 09:33:41;;;;;;;3.43;1.50;;;;;;;12.43;100.00;100259.91;7358891;19;20430;-48
2023/08/08 09:36:16;;;;;;;6.13;2.13;;;;;;;12.43;100.00;100290.94;7384682;19;20815;-45
2023/08/08 09:38:46;;;;;;;13.50;5.40;;;;;;;12.34;100.00;100283.81;7359951;19;20433;-47
2023/08/08 09:41:15;;;;;;;11.80;1.70;;;;;;;12.39;100.00;100310.69;7391417;19;20417;-43
2023/08/08 09:43:49;;;;;;;13.17;3.90;;;;;;;12.44;100.00;100344.44;7365749;19;20431;-48
2023/08/08 09:46:21;;;;;;;7.20;2.93;;;;;;;12.20;100.00;100318.78;7390639;19;20447;-49
2023/08/08 09:48:51;;;;;;;5.87;1.37;;;;;;;12.11;100.00;100330.59;7366114;19;20470;-46
2023/08/08 09:51:20;;;;;;;5.50;2.00;;;;;;;11.91;100.00;100319.66;7391552;19;20419;-46
2023/08/08 09:53:51;;;;;;;11.60;4.27;;;;;;;11.80;100.00;100318.47;7365752;19;21031;-47
2023/08/08 09:56:22;;;;;;;2.23;1.10;;;;;;;11.80;100.00;100323.63;7388365;19;20802;-50
2023/08/08 09:58:57;;;;;;;7.10;1.73;;;;;;;11.75;100.00;100328.66;7365978;19;20524;-50
2023/08/08 10:01:28;;;;;;;2.27;0.70;;;;;;;11.63;100.00;100331.72;7391170;19;20411;-48
2023/08/08 10:03:58;;;;;;;3.07;0.97;;;;;;;11.72;100.00;100323.38;7365831;19;20423;-44
2023/08/08 10:06:28;;;;;;;3.00;1.17;;;;;;;11.76;100.00;100317.50;7388635;19;20518;-46
2023/08/08 10:08:58;;;;;;;2.50;1.00;;;;;;;11.82;100.00;100342.63;7365762;19;21461;-48
2023/08/08 10:11:28;;;;;;;3.10;0.90;;;;;;;12.04;100.00;100314.88;7390188;19;20415;-47
2023/08/08 10:14:03;;;;;;;5.40;1.27;;;;;;;12.20;100.00;100329.97;7363402;19;20426;-47
2023/08/08 10:16:35;;;;;;;4.00;1.00;;;;;;;12.37;100.00;100338.19;7390953;19;20772;-46
2023/08/08 10:19:06;;;;;;;4.47;1.30;;;;;;;12.23;100.00;100335.25;7365284;19;20434;-45
2023/08/08 10:21:37;;;;;;;3.20;0.80;;;;;;;12.22;100.00;100333.50;7390956;19;20499;-45
2023/08/08 10:24:08;;;;;;;2.43;1.23;;;;;;;12.04;100.00;100317.47;7364600;19;20438;-46
2023/08/08 10:26:57;;;;;;;5.77;1.37;;;;;;;12.23;100.00;100311.97;7388348;19;20429;-46
2023/08/08 10:29:30;;;;;;;3.50;1.27;;;;;;;12.53;100.00;100312.75;7366238;19;20439;-47
2023/08/08 10:32:01;;;;;;;4.60;1.00;;;;;;;12.55;100.00;100322.31;7391943;19;20403;-46
2023/08/08 10:34:40;;;;;;;2.40;1.17;;;;;;;12.76;100.00;100310.75;7365219;19;21138;-43
2023/08/08 10:37:12;;;;;;;2.93;1.40;;;;;;;13.00;100.00;100308.75;7387666;19;20421;-44
2023/08/08 10:39:54;;;;;;;11.30;1.03;;;;;;;13.18;100.00;100292.78;7368039;19;20428;-46
2023/08/08 10:42:25;;;;;;;8.57;1.67;;;;;;;13.16;100.00;100304.81;7365759;19;20431;-47
2023/08/08 10:44:58;;;;;;;3.03;1.20;;;;;;;13.23;100.00;100315.38;7386653;19;20432;-44
2023/08/08 10:47:29;;;;;;;2.87;1.17;;;;;;;12.90;100.00;100312.81;7365289;19;20416;-52
2023/08/08 10:50:01;;;;;;;6.00;1.20;;;;;;;12.56;100.00;100328.34;7390528;19;20447;-50
2023/08/08 10:52:34;;;;;;;3.00;1.10;;;;;;;12.27;100.00;100352.59;7370716;19;20998;-45
2023/08/08 10:55:05;;;;;;;5.37;1.37;;;;;;;12.08;100.00;100345.13;7393756;19;20463;-45
2023/08/08 10:57:34;;;;;;;2.23;1.03;;;;;;;11.97;100.00;100365.47;7371479;19;20398;-46
2023/08/08 11:00:22;;;;;;;3.50;1.00;;;;;;;11.81;100.00;100372.78;7394639;19;20946;-46
2023/08/08 11:02:53;;;;;;;4.40;1.20;;;;;;;11.72;100.00;100352.69;7370900;19;20406;-43
2023/08/08 11:05:22;;;;;;;5.70;1.20;;;;;;;11.73;100.00;100338.06;7392734;19;20443;-45
2023/08/08 11:07:53;;;;;;;3.10;1.23;;;;;;;12.14;100.00;100330.69;7370901;19;20478;-45
2023/08/08 11:10:23;;;;;;;2.23;0.90;;;;;;;12.26;100.00;100314.63;7393711;19;20838;-46
2023/08/08 11:12:57;;;;;;;5.57;1.30;;;;;;;12.34;100.00;100295.84;7370882;19;20399;-44
2023/08/08 11:15:30;;;;;;;1.93;0.70;;;;;;;12.36;100.00;100289.03;7394198;19;20434;-43
2023/08/08 11:17:59;;;;;;;4.37;1.10;;;;;;;12.52;100.00;100291.16;7370954;19;20407;-46
2023/08/08 11:20:32;;;;;;;3.80;1.40;;;;;;;12.47;100.00;100292.78;7394060;19;20411;-48
2023/08/08 11:23:03;;;;;;;2.73;1.00;;;;;;;12.49;100.00;100311.81;7369597;19;20821;-43
2023/08/08 11:25:33;;;;;;;2.77;1.13;;;;;;;12.54;100.00;100305.03;7390828;19;20443;-46
2023/08/08 11:28:00;;;;;;;2.53;0.90;;;;;;;12.53;100.00;100324.00;7369952;19;20925;-47
2023/08/08 11:30:36;;;;;;;4.23;1.10;;;;;;;12.57;100.00;100319.78;7393430;19;20820;-44